sensor_id;sensor_type;location;lat;lon;timestamp;temperature;humidity
47090;DHT22;32840;52.516;13.294;2023-05-16T00:00:25;15.80;99.90
47090;DHT22;32840;52.516;13.294;2023-05-16T00:03:10;15.80;99.90
47090;DHT22;32840;52.516;13.294;2023-05-16T00:05:56;15.80;99.90
47090;DHT22;32840;52.516;13.294;2023-05-16T00:08:41;15.80;99.90
47090;DHT22;32840;52.516;13.294;2023-05-16T00:11:26;15.80;99.90
47090;DHT22;32840;52.516;13.294;2023-05-16T00:14:11;15.80;99.90
47090;DHT22;32840;52.516;13.294;2023-05-16T00:16:56;15.80;99.90
47090;DHT22;32840;52.516;13.294;2023-05-16T00:19:47;15.80;99.90
47090;DHT22;32840;52.516;13.294;2023-05-16T00:22:42;15.80;99.90
47090;DHT22;32840;52.516;13.294;2023-05-16T00:25:26;15.70;99.90
47090;DHT22;32840;52.516;13.294;2023-05-16T00:28:13;15.70;99.90
47090;DHT22;32840;52.516;13.294;2023-05-16T00:30:58;15.70;99.90
47090;DHT22;32840;52.516;13.294;2023-05-16T00:33:43;15.70;99.90
47090;DHT22;32840;52.516;13.294;2023-05-16T00:36:28;15.60;99.90
47090;DHT22;32840;52.516;13.294;2023-05-16T00:39:12;15.50;99.90
47090;DHT22;32840;52.516;13.294;2023-05-16T00:41:57;15.50;99.90
47090;DHT22;32840;52.516;13.294;2023-05-16T00:44:42;15.40;99.90
47090;DHT22;32840;52.516;13.294;2023-05-16T00:47:27;15.40;99.90
47090;DHT22;32840;52.516;13.294;2023-05-16T00:50:12;15.40;99.90
47090;DHT22;32840;52.516;13.294;2023-05-16T00:52:57;15.50;99.90
47090;DHT22;32840;52.516;13.294;2023-05-16T00:55:42;15.40;99.90
47090;DHT22;32840;52.516;13.294;2023-05-16T00:58:29;15.30;99.90
47090;DHT22;32840;52.516;13.294;2023-05-16T01:01:15;15.30;99.90
47090;DHT22;32840;52.516;13.294;2023-05-16T01:04:00;15.30;99.90
47090;DHT22;32840;52.516;13.294;2023-05-16T01:06:45;15.20;99.90
47090;DHT22;32840;52.516;13.294;2023-05-16T01:09:30;15.10;99.90
47090;DHT22;32840;52.516;13.294;2023-05-16T01:12:36;15.00;99.90
47090;DHT22;32840;52.516;13.294;2023-05-16T01:15:29;15.00;99.90
47090;DHT22;32840;52.516;13.294;2023-05-16T01:18:41;15.00;99.90
47090;DHT22;32840;52.516;13.294;2023-05-16T01:24:22;14.80;99.90
47090;DHT22;32840;52.516;13.294;2023-05-16T01:27:10;14.80;99.90
47090;DHT22;32840;52.516;13.294;2023-05-16T01:29:57;14.70;99.90
47090;DHT22;32840;52.516;13.294;2023-05-16T01:32:42;14.70;99.90
47090;DHT22;32840;52.516;13.294;2023-05-16T01:35:27;14.50;99.90
47090;DHT22;32840;52.516;13.294;2023-05-16T01:38:21;14.50;99.90
47090;DHT22;32840;52.516;13.294;2023-05-16T01:41:24;14.40;99.90
47090;DHT22;32840;52.516;13.294;2023-05-16T01:44:27;14.40;99.90
47090;DHT22;32840;52.516;13.294;2023-05-16T01:47:16;14.50;99.90
47090;DHT22;32840;52.516;13.294;2023-05-16T01:50:09;14.50;99.90
47090;DHT22;32840;52.516;13.294;2023-05-16T01:53:00;14.40;99.90
47090;DHT22;32840;52.516;13.294;2023-05-16T01:55:55;14.40;99.90
47090;DHT22;32840;52.516;13.294;2023-05-16T01:58:40;14.30;99.90
47090;DHT22;32840;52.516;13.294;2023-05-16T02:01:25;14.20;99.90
47090;DHT22;32840;52.516;13.294;2023-05-16T02:04:10;14.20;99.90
47090;DHT22;32840;52.516;13.294;2023-05-16T02:06:56;14.30;99.90
47090;DHT22;32840;52.516;13.294;2023-05-16T02:09:44;14.30;99.90
47090;DHT22;32840;52.516;13.294;2023-05-16T02:12:28;14.40;99.90
47090;DHT22;32840;52.516;13.294;2023-05-16T02:15:13;14.20;99.90
47090;DHT22;32840;52.516;13.294;2023-05-16T02:17:58;14.10;99.90
47090;DHT22;32840;52.516;13.294;2023-05-16T02:20:43;14.00;99.90
47090;DHT22;32840;52.516;13.294;2023-05-16T02:23:28;13.90;99.90
47090;DHT22;32840;52.516;13.294;2023-05-16T02:26:13;13.90;99.90
47090;DHT22;32840;52.516;13.294;2023-05-16T02:28:58;13.80;99.90
47090;DHT22;32840;52.516;13.294;2023-05-16T02:31:43;13.80;99.90
47090;DHT22;32840;52.516;13.294;2023-05-16T02:34:27;13.90;99.90
47090;DHT22;32840;52.516;13.294;2023-05-16T02:37:12;13.90;99.90
47090;DHT22;32840;52.516;13.294;2023-05-16T02:39:57;13.90;99.90
47090;DHT22;32840;52.516;13.294;2023-05-16T02:42:42;14.00;99.90
47090;DHT22;32840;52.516;13.294;2023-05-16T02:45:27;14.00;99.90
47090;DHT22;32840;52.516;13.294;2023-05-16T02:48:12;13.90;99.90
47090;DHT22;32840;52.516;13.294;2023-05-16T02:50:57;13.90;99.90
47090;DHT22;32840;52.516;13.294;2023-05-16T02:53:42;14.00;99.90
47090;DHT22;32840;52.516;13.294;2023-05-16T02:56:27;14.10;99.90
47090;DHT22;32840;52.516;13.294;2023-05-16T02:59:12;14.00;99.90
47090;DHT22;32840;52.516;13.294;2023-05-16T03:01:57;14.00;99.90
47090;DHT22;32840;52.516;13.294;2023-05-16T03:04:42;14.10;99.90
47090;DHT22;32840;52.516;13.294;2023-05-16T03:07:26;14.00;99.90
47090;DHT22;32840;52.516;13.294;2023-05-16T03:10:11;14.00;99.90
47090;DHT22;32840;52.516;13.294;2023-05-16T03:12:56;14.00;99.90
47090;DHT22;32840;52.516;13.294;2023-05-16T03:15:41;14.00;99.90
47090;DHT22;32840;52.516;13.294;2023-05-16T03:18:26;14.10;99.90
47090;DHT22;32840;52.516;13.294;2023-05-16T03:21:11;14.10;99.90
47090;DHT22;32840;52.516;13.294;2023-05-16T03:23:56;14.10;99.90
47090;DHT22;32840;52.516;13.294;2023-05-16T03:26:41;13.90;99.90
47090;DHT22;32840;52.516;13.294;2023-05-16T03:29:26;13.90;99.90
47090;DHT22;32840;52.516;13.294;2023-05-16T03:32:11;13.80;99.90
47090;DHT22;32840;52.516;13.294;2023-05-16T03:34:56;13.80;99.90
47090;DHT22;32840;52.516;13.294;2023-05-16T03:37:41;13.80;99.90
47090;DHT22;32840;52.516;13.294;2023-05-16T03:40:26;13.80;99.90
47090;DHT22;32840;52.516;13.294;2023-05-16T03:43:11;13.80;99.90
47090;DHT22;32840;52.516;13.294;2023-05-16T03:45:56;13.80;99.90
47090;DHT22;32840;52.516;13.294;2023-05-16T03:48:41;13.90;99.90
47090;DHT22;32840;52.516;13.294;2023-05-16T03:51:25;13.90;99.90
47090;DHT22;32840;52.516;13.294;2023-05-16T03:54:11;13.90;99.90
47090;DHT22;32840;52.516;13.294;2023-05-16T03:56:56;13.90;99.90
47090;DHT22;32840;52.516;13.294;2023-05-16T03:59:41;13.90;99.90
47090;DHT22;32840;52.516;13.294;2023-05-16T04:02:26;13.90;99.90
47090;DHT22;32840;52.516;13.294;2023-05-16T04:05:11;13.60;99.90
47090;DHT22;32840;52.516;13.294;2023-05-16T04:07:56;13.50;99.90
47090;DHT22;32840;52.516;13.294;2023-05-16T04:10:41;13.50;99.90
47090;DHT22;32840;52.516;13.294;2023-05-16T04:13:26;13.50;99.90
47090;DHT22;32840;52.516;13.294;2023-05-16T04:16:11;13.50;99.90
47090;DHT22;32840;52.516;13.294;2023-05-16T04:18:56;13.60;99.90
47090;DHT22;32840;52.516;13.294;2023-05-16T04:21:41;13.70;99.90
47090;DHT22;32840;52.516;13.294;2023-05-16T04:24:26;13.80;99.90
47090;DHT22;32840;52.516;13.294;2023-05-16T04:27:12;13.80;99.90
47090;DHT22;32840;52.516;13.294;2023-05-16T04:29:57;13.70;99.90
47090;DHT22;32840;52.516;13.294;2023-05-16T04:32:43;13.60;99.90
47090;DHT22;32840;52.516;13.294;2023-05-16T04:35:28;13.50;99.90
47090;DHT22;32840;52.516;13.294;2023-05-16T04:38:13;13.50;99.90
47090;DHT22;32840;52.516;13.294;2023-05-16T04:40:58;13.50;99.90
47090;DHT22;32840;52.516;13.294;2023-05-16T04:43:43;13.50;99.90
47090;DHT22;32840;52.516;13.294;2023-05-16T04:46:28;13.50;99.90
47090;DHT22;32840;52.516;13.294;2023-05-16T04:49:13;13.40;99.90
47090;DHT22;32840;52.516;13.294;2023-05-16T04:51:58;13.30;99.90
47090;DHT22;32840;52.516;13.294;2023-05-16T04:54:43;13.40;99.90
47090;DHT22;32840;52.516;13.294;2023-05-16T04:57:28;13.30;99.90
47090;DHT22;32840;52.516;13.294;2023-05-16T05:00:14;13.30;99.90
47090;DHT22;32840;52.516;13.294;2023-05-16T05:02:59;13.30;99.90
47090;DHT22;32840;52.516;13.294;2023-05-16T05:05:46;13.30;99.90
47090;DHT22;32840;52.516;13.294;2023-05-16T05:08:32;13.40;99.90
47090;DHT22;32840;52.516;13.294;2023-05-16T05:11:16;13.50;99.90
47090;DHT22;32840;52.516;13.294;2023-05-16T05:14:01;13.50;99.90
47090;DHT22;32840;52.516;13.294;2023-05-16T05:16:47;13.40;99.90
47090;DHT22;32840;52.516;13.294;2023-05-16T05:19:31;13.30;99.90
47090;DHT22;32840;52.516;13.294;2023-05-16T05:22:16;13.40;99.90
47090;DHT22;32840;52.516;13.294;2023-05-16T05:25:01;13.40;99.90
47090;DHT22;32840;52.516;13.294;2023-05-16T05:27:46;13.40;99.90
47090;DHT22;32840;52.516;13.294;2023-05-16T05:30:31;13.40;99.90
47090;DHT22;32840;52.516;13.294;2023-05-16T05:33:16;13.40;99.90
47090;DHT22;32840;52.516;13.294;2023-05-16T05:36:02;13.30;99.90
47090;DHT22;32840;52.516;13.294;2023-05-16T05:38:47;13.10;99.90
47090;DHT22;32840;52.516;13.294;2023-05-16T05:41:32;13.20;99.90
47090;DHT22;32840;52.516;13.294;2023-05-16T05:44:17;13.10;99.90
47090;DHT22;32840;52.516;13.294;2023-05-16T05:47:02;13.10;99.90
47090;DHT22;32840;52.516;13.294;2023-05-16T05:49:47;13.20;99.90
47090;DHT22;32840;52.516;13.294;2023-05-16T05:52:32;13.30;99.90
47090;DHT22;32840;52.516;13.294;2023-05-16T05:55:17;13.40;99.90
47090;DHT22;32840;52.516;13.294;2023-05-16T05:58:02;13.40;99.90
47090;DHT22;32840;52.516;13.294;2023-05-16T06:00:47;13.50;99.90
47090;DHT22;32840;52.516;13.294;2023-05-16T06:03:32;13.60;99.90
47090;DHT22;32840;52.516;13.294;2023-05-16T06:06:17;13.50;99.90
47090;DHT22;32840;52.516;13.294;2023-05-16T06:09:02;13.50;99.90
47090;DHT22;32840;52.516;13.294;2023-05-16T06:11:46;13.60;99.90
47090;DHT22;32840;52.516;13.294;2023-05-16T06:14:31;13.70;99.90
47090;DHT22;32840;52.516;13.294;2023-05-16T06:17:16;13.50;99.90
47090;DHT22;32840;52.516;13.294;2023-05-16T06:20:01;13.40;99.90
47090;DHT22;32840;52.516;13.294;2023-05-16T06:22:47;13.30;99.90
47090;DHT22;32840;52.516;13.294;2023-05-16T06:25:31;13.40;99.90
47090;DHT22;32840;52.516;13.294;2023-05-16T06:28:16;13.40;99.90
47090;DHT22;32840;52.516;13.294;2023-05-16T06:31:01;13.50;99.90
47090;DHT22;32840;52.516;13.294;2023-05-16T06:33:46;13.50;99.90
47090;DHT22;32840;52.516;13.294;2023-05-16T06:36:30;13.40;99.90
47090;DHT22;32840;52.516;13.294;2023-05-16T06:39:15;13.40;99.90
47090;DHT22;32840;52.516;13.294;2023-05-16T06:42:00;13.50;99.90
47090;DHT22;32840;52.516;13.294;2023-05-16T06:44:46;13.60;99.90
47090;DHT22;32840;52.516;13.294;2023-05-16T06:47:31;13.70;99.90
47090;DHT22;32840;52.516;13.294;2023-05-16T06:50:16;13.70;99.90
47090;DHT22;32840;52.516;13.294;2023-05-16T06:53:01;13.70;99.90
47090;DHT22;32840;52.516;13.294;2023-05-16T06:55:48;13.70;99.90
47090;DHT22;32840;52.516;13.294;2023-05-16T06:58:33;13.60;99.90
47090;DHT22;32840;52.516;13.294;2023-05-16T07:01:18;13.60;99.90
47090;DHT22;32840;52.516;13.294;2023-05-16T07:04:03;13.60;99.90
47090;DHT22;32840;52.516;13.294;2023-05-16T07:06:48;13.60;99.90
47090;DHT22;32840;52.516;13.294;2023-05-16T07:09:33;13.70;99.90
47090;DHT22;32840;52.516;13.294;2023-05-16T07:12:18;13.70;99.90
47090;DHT22;32840;52.516;13.294;2023-05-16T07:15:03;13.80;99.90
47090;DHT22;32840;52.516;13.294;2023-05-16T07:17:48;13.80;99.90
47090;DHT22;32840;52.516;13.294;2023-05-16T07:20:34;13.80;99.90
47090;DHT22;32840;52.516;13.294;2023-05-16T07:23:19;13.90;99.90
47090;DHT22;32840;52.516;13.294;2023-05-16T07:26:04;14.10;99.90
47090;DHT22;32840;52.516;13.294;2023-05-16T07:28:49;14.30;99.90
47090;DHT22;32840;52.516;13.294;2023-05-16T07:31:34;14.30;99.90
47090;DHT22;32840;52.516;13.294;2023-05-16T07:34:19;14.30;99.90
47090;DHT22;32840;52.516;13.294;2023-05-16T07:37:04;14.40;99.90
47090;DHT22;32840;52.516;13.294;2023-05-16T07:39:51;14.50;99.90
47090;DHT22;32840;52.516;13.294;2023-05-16T07:42:36;14.50;99.90
47090;DHT22;32840;52.516;13.294;2023-05-16T07:45:21;14.30;99.90
47090;DHT22;32840;52.516;13.294;2023-05-16T07:48:05;14.00;99.90
47090;DHT22;32840;52.516;13.294;2023-05-16T07:50:51;13.90;99.90
47090;DHT22;32840;52.516;13.294;2023-05-16T07:53:35;14.00;99.90
47090;DHT22;32840;52.516;13.294;2023-05-16T07:56:20;14.10;99.90
47090;DHT22;32840;52.516;13.294;2023-05-16T07:59:06;14.10;99.90
47090;DHT22;32840;52.516;13.294;2023-05-16T08:01:51;13.90;99.90
47090;DHT22;32840;52.516;13.294;2023-05-16T08:04:35;13.90;99.90
47090;DHT22;32840;52.516;13.294;2023-05-16T08:07:21;13.90;99.90
47090;DHT22;32840;52.516;13.294;2023-05-16T08:10:06;13.90;99.90
47090;DHT22;32840;52.516;13.294;2023-05-16T08:12:51;13.80;99.90
47090;DHT22;32840;52.516;13.294;2023-05-16T08:15:37;14.00;99.90
47090;DHT22;32840;52.516;13.294;2023-05-16T08:18:22;14.00;99.90
47090;DHT22;32840;52.516;13.294;2023-05-16T08:21:07;14.00;99.90
47090;DHT22;32840;52.516;13.294;2023-05-16T08:23:53;14.00;99.90
47090;DHT22;32840;52.516;13.294;2023-05-16T08:26:37;14.20;99.90
47090;DHT22;32840;52.516;13.294;2023-05-16T08:29:22;14.20;99.90
47090;DHT22;32840;52.516;13.294;2023-05-16T08:32:08;14.10;99.90
47090;DHT22;32840;52.516;13.294;2023-05-16T08:34:54;13.90;99.90
47090;DHT22;32840;52.516;13.294;2023-05-16T08:37:39;14.00;99.90
47090;DHT22;32840;52.516;13.294;2023-05-16T08:40:25;13.90;99.90
47090;DHT22;32840;52.516;13.294;2023-05-16T08:43:11;13.90;99.90
47090;DHT22;32840;52.516;13.294;2023-05-16T08:45:56;14.00;99.90
47090;DHT22;32840;52.516;13.294;2023-05-16T08:48:42;14.10;99.90
47090;DHT22;32840;52.516;13.294;2023-05-16T08:51:32;13.90;99.90
47090;DHT22;32840;52.516;13.294;2023-05-16T08:54:20;14.00;99.90
47090;DHT22;32840;52.516;13.294;2023-05-16T08:57:06;14.00;99.90
47090;DHT22;32840;52.516;13.294;2023-05-16T08:59:53;14.00;99.90
47090;DHT22;32840;52.516;13.294;2023-05-16T09:02:41;14.10;99.90
47090;DHT22;32840;52.516;13.294;2023-05-16T09:05:29;14.20;99.90
47090;DHT22;32840;52.516;13.294;2023-05-16T09:08:14;14.20;99.90
47090;DHT22;32840;52.516;13.294;2023-05-16T09:11:03;14.30;99.90
47090;DHT22;32840;52.516;13.294;2023-05-16T09:13:48;14.20;99.90
47090;DHT22;32840;52.516;13.294;2023-05-16T09:16:33;14.10;99.90
47090;DHT22;32840;52.516;13.294;2023-05-16T09:19:18;14.00;99.90
47090;DHT22;32840;52.516;13.294;2023-05-16T09:22:03;14.00;99.90
47090;DHT22;32840;52.516;13.294;2023-05-16T09:24:48;14.20;99.90
47090;DHT22;32840;52.516;13.294;2023-05-16T09:27:33;14.40;99.90
47090;DHT22;32840;52.516;13.294;2023-05-16T09:30:21;14.60;99.90
47090;DHT22;32840;52.516;13.294;2023-05-16T09:33:07;14.70;99.90
47090;DHT22;32840;52.516;13.294;2023-05-16T09:35:59;14.40;99.90
47090;DHT22;32840;52.516;13.294;2023-05-16T09:38:45;14.50;99.90
47090;DHT22;32840;52.516;13.294;2023-05-16T09:41:34;14.70;99.90
47090;DHT22;32840;52.516;13.294;2023-05-16T09:44:20;14.60;99.90
47090;DHT22;32840;52.516;13.294;2023-05-16T09:47:05;14.70;99.90
47090;DHT22;32840;52.516;13.294;2023-05-16T09:49:53;14.60;99.90
47090;DHT22;32840;52.516;13.294;2023-05-16T09:52:40;14.50;99.90
47090;DHT22;32840;52.516;13.294;2023-05-16T09:55:25;14.30;99.90
47090;DHT22;32840;52.516;13.294;2023-05-16T09:58:10;14.40;99.90
47090;DHT22;32840;52.516;13.294;2023-05-16T10:00:56;14.50;99.90
47090;DHT22;32840;52.516;13.294;2023-05-16T10:03:41;14.50;99.90
47090;DHT22;32840;52.516;13.294;2023-05-16T10:06:26;14.40;99.90
47090;DHT22;32840;52.516;13.294;2023-05-16T10:09:12;14.40;99.90
47090;DHT22;32840;52.516;13.294;2023-05-16T10:12:03;14.30;99.90
47090;DHT22;32840;52.516;13.294;2023-05-16T10:14:50;14.30;99.90
47090;DHT22;32840;52.516;13.294;2023-05-16T10:17:35;14.20;99.90
47090;DHT22;32840;52.516;13.294;2023-05-16T10:20:22;14.20;99.90
47090;DHT22;32840;52.516;13.294;2023-05-16T10:23:08;14.30;99.90
47090;DHT22;32840;52.516;13.294;2023-05-16T10:25:56;14.60;99.90
47090;DHT22;32840;52.516;13.294;2023-05-16T10:28:41;14.70;99.90
47090;DHT22;32840;52.516;13.294;2023-05-16T10:31:27;14.70;99.90
47090;DHT22;32840;52.516;13.294;2023-05-16T10:34:15;14.60;99.90
47090;DHT22;32840;52.516;13.294;2023-05-16T10:37:00;14.60;99.90
47090;DHT22;32840;52.516;13.294;2023-05-16T10:39:45;14.60;99.90
47090;DHT22;32840;52.516;13.294;2023-05-16T10:42:33;14.60;99.90
47090;DHT22;32840;52.516;13.294;2023-05-16T10:45:19;14.50;99.90
47090;DHT22;32840;52.516;13.294;2023-05-16T10:48:05;14.30;99.90
47090;DHT22;32840;52.516;13.294;2023-05-16T10:50:50;14.10;99.90
47090;DHT22;32840;52.516;13.294;2023-05-16T10:53:36;14.00;99.90
47090;DHT22;32840;52.516;13.294;2023-05-16T10:56:22;14.00;99.90
47090;DHT22;32840;52.516;13.294;2023-05-16T10:59:24;14.10;99.90
47090;DHT22;32840;52.516;13.294;2023-05-16T11:02:30;14.40;99.90
47090;DHT22;32840;52.516;13.294;2023-05-16T11:05:18;14.60;99.90
47090;DHT22;32840;52.516;13.294;2023-05-16T11:08:06;14.90;99.90
47090;DHT22;32840;52.516;13.294;2023-05-16T11:14:22;15.20;99.90
47090;DHT22;32840;52.516;13.294;2023-05-16T11:17:13;15.30;99.90
47090;DHT22;32840;52.516;13.294;2023-05-16T11:19:58;15.10;99.90
47090;DHT22;32840;52.516;13.294;2023-05-16T11:22:43;15.00;99.90
47090;DHT22;32840;52.516;13.294;2023-05-16T11:25:35;15.10;99.90
47090;DHT22;32840;52.516;13.294;2023-05-16T11:28:25;15.20;99.90
47090;DHT22;32840;52.516;13.294;2023-05-16T11:31:10;15.10;99.90
47090;DHT22;32840;52.516;13.294;2023-05-16T11:33:55;15.10;99.90
47090;DHT22;32840;52.516;13.294;2023-05-16T11:36:40;15.10;99.90
47090;DHT22;32840;52.516;13.294;2023-05-16T11:39:25;15.10;99.90
47090;DHT22;32840;52.516;13.294;2023-05-16T11:42:10;15.10;99.90
47090;DHT22;32840;52.516;13.294;2023-05-16T11:45:11;15.30;99.90
47090;DHT22;32840;52.516;13.294;2023-05-16T11:48:01;15.50;99.90
47090;DHT22;32840;52.516;13.294;2023-05-16T11:50:47;15.90;99.70
47090;DHT22;32840;52.516;13.294;2023-05-16T11:53:33;15.90;98.60
47090;DHT22;32840;52.516;13.294;2023-05-16T11:56:19;15.90;98.50
47090;DHT22;32840;52.516;13.294;2023-05-16T11:59:06;16.00;97.90
47090;DHT22;32840;52.516;13.294;2023-05-16T12:01:50;15.90;97.70
47090;DHT22;32840;52.516;13.294;2023-05-16T12:04:35;15.60;97.80
47090;DHT22;32840;52.516;13.294;2023-05-16T12:07:27;15.30;98.70
47090;DHT22;32840;52.516;13.294;2023-05-16T12:10:14;15.30;98.70
47090;DHT22;32840;52.516;13.294;2023-05-16T12:13:00;15.40;98.70
47090;DHT22;32840;52.516;13.294;2023-05-16T12:15:46;15.40;98.00
47090;DHT22;32840;52.516;13.294;2023-05-16T12:18:31;15.40;98.00
47090;DHT22;32840;52.516;13.294;2023-05-16T12:21:16;15.60;97.40
47090;DHT22;32840;52.516;13.294;2023-05-16T12:24:01;15.70;96.90
47090;DHT22;32840;52.516;13.294;2023-05-16T12:26:46;15.80;96.50
47090;DHT22;32840;52.516;13.294;2023-05-16T12:29:31;16.10;95.90
47090;DHT22;32840;52.516;13.294;2023-05-16T12:32:20;16.10;95.40
47090;DHT22;32840;52.516;13.294;2023-05-16T12:35:06;16.20;94.90
47090;DHT22;32840;52.516;13.294;2023-05-16T12:37:51;16.40;94.40
47090;DHT22;32840;52.516;13.294;2023-05-16T12:40:37;16.30;93.00
47090;DHT22;32840;52.516;13.294;2023-05-16T12:43:22;16.30;92.80
47090;DHT22;32840;52.516;13.294;2023-05-16T12:46:09;16.50;92.20
47090;DHT22;32840;52.516;13.294;2023-05-16T12:49:03;16.60;91.80
47090;DHT22;32840;52.516;13.294;2023-05-16T12:51:53;16.80;90.60
47090;DHT22;32840;52.516;13.294;2023-05-16T12:54:38;17.00;90.10
47090;DHT22;32840;52.516;13.294;2023-05-16T12:57:23;16.80;89.10
47090;DHT22;32840;52.516;13.294;2023-05-16T13:00:08;16.70;89.60
47090;DHT22;32840;52.516;13.294;2023-05-16T13:02:55;16.50;89.20
47090;DHT22;32840;52.516;13.294;2023-05-16T13:05:40;16.50;90.00
47090;DHT22;32840;52.516;13.294;2023-05-16T13:08:26;16.50;88.80
47090;DHT22;32840;52.516;13.294;2023-05-16T13:11:12;16.30;88.00
47090;DHT22;32840;52.516;13.294;2023-05-16T13:13:57;16.20;87.20
47090;DHT22;32840;52.516;13.294;2023-05-16T13:16:42;16.10;87.00
47090;DHT22;32840;52.516;13.294;2023-05-16T13:19:28;16.00;86.80
47090;DHT22;32840;52.516;13.294;2023-05-16T13:22:15;15.90;86.80
47090;DHT22;32840;52.516;13.294;2023-05-16T13:25:00;16.10;86.20
47090;DHT22;32840;52.516;13.294;2023-05-16T13:27:45;16.40;85.00
47090;DHT22;32840;52.516;13.294;2023-05-16T13:30:29;16.70;83.00
47090;DHT22;32840;52.516;13.294;2023-05-16T13:33:15;17.00;82.50
47090;DHT22;32840;52.516;13.294;2023-05-16T13:35:59;17.00;78.30
47090;DHT22;32840;52.516;13.294;2023-05-16T13:38:44;17.00;78.70
47090;DHT22;32840;52.516;13.294;2023-05-16T13:41:29;16.80;78.00
47090;DHT22;32840;52.516;13.294;2023-05-16T13:44:14;16.70;78.00
47090;DHT22;32840;52.516;13.294;2023-05-16T13:46:59;16.60;77.90
47090;DHT22;32840;52.516;13.294;2023-05-16T13:49:44;16.80;77.70
47090;DHT22;32840;52.516;13.294;2023-05-16T13:52:29;16.90;75.30
47090;DHT22;32840;52.516;13.294;2023-05-16T13:55:14;16.90;74.40
47090;DHT22;32840;52.516;13.294;2023-05-16T13:57:59;16.80;73.10
47090;DHT22;32840;52.516;13.294;2023-05-16T14:00:44;16.60;71.90
47090;DHT22;32840;52.516;13.294;2023-05-16T14:03:29;16.50;72.40
47090;DHT22;32840;52.516;13.294;2023-05-16T14:06:13;16.60;72.60
47090;DHT22;32840;52.516;13.294;2023-05-16T14:08:58;16.70;72.40
47090;DHT22;32840;52.516;13.294;2023-05-16T14:11:43;17.00;71.00
47090;DHT22;32840;52.516;13.294;2023-05-16T14:14:28;17.20;69.40
47090;DHT22;32840;52.516;13.294;2023-05-16T14:17:13;17.40;68.00
47090;DHT22;32840;52.516;13.294;2023-05-16T14:19:58;17.50;68.30
47090;DHT22;32840;52.516;13.294;2023-05-16T14:22:43;17.40;66.90
47090;DHT22;32840;52.516;13.294;2023-05-16T14:25:28;17.30;67.60
47090;DHT22;32840;52.516;13.294;2023-05-16T14:28:13;17.30;67.80
47090;DHT22;32840;52.516;13.294;2023-05-16T14:30:59;17.40;67.30
47090;DHT22;32840;52.516;13.294;2023-05-16T14:33:43;17.50;64.70
47090;DHT22;32840;52.516;13.294;2023-05-16T14:36:29;17.50;65.40
47090;DHT22;32840;52.516;13.294;2023-05-16T14:39:14;17.50;62.80
47090;DHT22;32840;52.516;13.294;2023-05-16T14:41:59;17.50;63.80
47090;DHT22;32840;52.516;13.294;2023-05-16T14:44:44;17.50;64.50
47090;DHT22;32840;52.516;13.294;2023-05-16T14:47:29;17.50;61.90
47090;DHT22;32840;52.516;13.294;2023-05-16T14:50:14;17.50;62.70
47090;DHT22;32840;52.516;13.294;2023-05-16T14:52:59;17.50;61.10
47090;DHT22;32840;52.516;13.294;2023-05-16T14:55:44;17.60;60.70
47090;DHT22;32840;52.516;13.294;2023-05-16T14:58:29;17.70;60.40
47090;DHT22;32840;52.516;13.294;2023-05-16T15:01:14;17.80;59.70
47090;DHT22;32840;52.516;13.294;2023-05-16T15:03:59;18.00;58.30
47090;DHT22;32840;52.516;13.294;2023-05-16T15:06:44;17.90;58.80
47090;DHT22;32840;52.516;13.294;2023-05-16T15:09:29;17.80;57.80
47090;DHT22;32840;52.516;13.294;2023-05-16T15:12:15;17.60;57.30
47090;DHT22;32840;52.516;13.294;2023-05-16T15:14:59;17.50;58.00
47090;DHT22;32840;52.516;13.294;2023-05-16T15:17:44;17.40;55.80
47090;DHT22;32840;52.516;13.294;2023-05-16T15:20:29;17.30;56.50
47090;DHT22;32840;52.516;13.294;2023-05-16T15:23:14;17.30;56.20
47090;DHT22;32840;52.516;13.294;2023-05-16T15:25:59;17.20;57.10
47090;DHT22;32840;52.516;13.294;2023-05-16T15:28:44;17.40;57.30
47090;DHT22;32840;52.516;13.294;2023-05-16T15:31:29;17.50;56.00
47090;DHT22;32840;52.516;13.294;2023-05-16T15:34:15;17.50;55.60
47090;DHT22;32840;52.516;13.294;2023-05-16T15:37:00;17.60;53.90
47090;DHT22;32840;52.516;13.294;2023-05-16T15:39:45;17.50;53.10
47090;DHT22;32840;52.516;13.294;2023-05-16T15:42:30;17.60;54.00
47090;DHT22;32840;52.516;13.294;2023-05-16T15:45:15;17.60;53.90
47090;DHT22;32840;52.516;13.294;2023-05-16T15:48:00;17.50;54.80
47090;DHT22;32840;52.516;13.294;2023-05-16T15:50:45;17.50;54.00
47090;DHT22;32840;52.516;13.294;2023-05-16T15:53:30;17.30;54.10
47090;DHT22;32840;52.516;13.294;2023-05-16T15:56:15;17.30;54.10
47090;DHT22;32840;52.516;13.294;2023-05-16T15:59:00;17.30;54.60
47090;DHT22;32840;52.516;13.294;2023-05-16T16:01:45;17.30;54.80
47090;DHT22;32840;52.516;13.294;2023-05-16T16:04:30;17.10;54.60
47090;DHT22;32840;52.516;13.294;2023-05-16T16:07:15;17.00;55.60
47090;DHT22;32840;52.516;13.294;2023-05-16T16:10:00;17.10;55.30
47090;DHT22;32840;52.516;13.294;2023-05-16T16:12:57;17.00;55.10
47090;DHT22;32840;52.516;13.294;2023-05-16T16:15:42;17.10;54.70
47090;DHT22;32840;52.516;13.294;2023-05-16T16:18:27;17.20;54.50
47090;DHT22;32840;52.516;13.294;2023-05-16T16:21:12;17.10;54.70
47090;DHT22;32840;52.516;13.294;2023-05-16T16:23:57;17.00;54.90
47090;DHT22;32840;52.516;13.294;2023-05-16T16:26:42;17.10;54.90
47090;DHT22;32840;52.516;13.294;2023-05-16T16:29:27;17.10;55.00
47090;DHT22;32840;52.516;13.294;2023-05-16T16:32:12;17.00;55.00
47090;DHT22;32840;52.516;13.294;2023-05-16T16:34:57;17.00;55.20
47090;DHT22;32840;52.516;13.294;2023-05-16T16:37:42;17.10;55.30
47090;DHT22;32840;52.516;13.294;2023-05-16T16:40:27;17.10;55.40
47090;DHT22;32840;52.516;13.294;2023-05-16T16:43:13;17.10;55.20
47090;DHT22;32840;52.516;13.294;2023-05-16T16:45:58;17.20;54.10
47090;DHT22;32840;52.516;13.294;2023-05-16T16:48:43;17.10;53.70
47090;DHT22;32840;52.516;13.294;2023-05-16T16:51:28;16.90;53.50
47090;DHT22;32840;52.516;13.294;2023-05-16T16:54:14;16.80;53.30
47090;DHT22;32840;52.516;13.294;2023-05-16T16:56:59;16.80;53.50
47090;DHT22;32840;52.516;13.294;2023-05-16T16:59:44;16.80;52.90
47090;DHT22;32840;52.516;13.294;2023-05-16T17:02:32;16.90;52.00
47090;DHT22;32840;52.516;13.294;2023-05-16T17:05:17;17.00;51.90
47090;DHT22;32840;52.516;13.294;2023-05-16T17:08:03;17.00;51.40
47090;DHT22;32840;52.516;13.294;2023-05-16T17:10:47;16.90;51.30
47090;DHT22;32840;52.516;13.294;2023-05-16T17:13:32;16.90;51.00
47090;DHT22;32840;52.516;13.294;2023-05-16T17:16:20;16.80;51.30